Time;durP1;ratioP1;P1;durP2;ratioP2;P2;SDS_P1;SDS_P2;PMS_P1;PMS_P2;Temp;Humidity;BMP_temperature;BMP_pressure;BME280_temperature;BME280_humidity;BME280_pressure;Samples;Min_cycle;Max_cycle;Signal;HPM_P1;HPM_P2
2021/11/29 00:00:24;;;;;;;73.95;7.78;;;-0.40;99.90;;;;;;5036329;28;20527;-79
2021/11/29 00:02:53;;;;;;;7.45;4.78;;;-0.50;99.90;;;;;;5021655;28;20025;-80
2021/11/29 00:05:20;;;;;;;21.90;5.57;;;-0.50;99.90;;;;;;5026287;28;20774;-79
2021/11/29 00:07:46;;;;;;;17.67;5.57;;;-0.50;99.90;;;;;;5017183;28;20119;-78
2021/11/29 00:10:12;;;;;;;10.00;4.90;;;-0.50;99.90;;;;;;5016693;28;20438;-78
2021/11/29 00:12:38;;;;;;;10.88;5.60;;;-0.50;99.90;;;;;;5026547;28;20123;-79
2021/11/29 00:15:07;;;;;;;6.13;4.38;;;-0.40;99.90;;;;;;5027073;28;20171;-77
2021/11/29 00:17:32;;;;;;;8.10;4.88;;;-0.40;99.90;;;;;;5018051;28;20025;-79
2021/11/29 00:19:58;;;;;;;10.95;5.75;;;-0.40;99.90;;;;;;5026574;28;20164;-80
2021/11/29 00:22:24;;;;;;;7.25;4.65;;;-0.30;99.90;;;;;;5035884;28;20048;-79
2021/11/29 00:24:50;;;;;;;9.80;6.22;;;-0.40;99.90;;;;;;5027667;28;20042;-79
2021/11/29 00:27:15;;;;;;;11.90;5.70;;;-0.30;99.90;;;;;;5028771;28;20779;-78
2021/11/29 00:29:44;;;;;;;13.90;6.13;;;-0.30;99.90;;;;;;5026886;28;20457;-79
2021/11/29 00:32:10;;;;;;;10.70;5.13;;;-0.40;99.90;;;;;;5036499;28;20052;-79
2021/11/29 00:34:35;;;;;;;32.25;5.95;;;-0.40;99.90;;;;;;5036659;28;20037;-80
2021/11/29 00:37:01;;;;;;;7.15;4.70;;;-0.40;99.90;;;;;;5026932;28;20059;-79
2021/11/29 00:39:26;;;;;;;7.07;4.15;;;-0.40;99.90;;;;;;5026284;28;20029;-80
2021/11/29 00:41:52;;;;;;;27.50;6.20;;;-0.30;99.90;;;;;;5026618;28;20030;-79
2021/11/29 00:44:17;;;;;;;7.63;4.82;;;-0.30;99.90;;;;;;5028371;28;20502;-78
2021/11/29 00:46:43;;;;;;;27.27;5.60;;;-0.30;99.90;;;;;;5031616;28;20569;-79
2021/11/29 00:49:09;;;;;;;8.30;5.25;;;-0.30;99.90;;;;;;5039089;28;20029;-78
2021/11/29 00:51:35;;;;;;;13.63;5.57;;;-0.30;99.90;;;;;;5030891;28;20033;-78
2021/11/29 00:54:00;;;;;;;8.00;5.72;;;-0.20;99.90;;;;;;5031037;28;20053;-80
2021/11/29 00:56:27;;;;;;;18.50;5.55;;;-0.20;99.90;;;;;;5032312;28;20549;-79
2021/11/29 00:58:53;;;;;;;12.18;6.30;;;-0.20;99.90;;;;;;5037986;28;20121;-80
2021/11/29 01:01:18;;;;;;;9.43;5.50;;;-0.20;99.90;;;;;;5032522;28;20064;-78
2021/11/29 01:03:44;;;;;;;7.57;4.85;;;-0.10;99.90;;;;;;5039576;28;20097;-79
2021/11/29 01:06:10;;;;;;;8.68;5.97;;;-0.20;99.90;;;;;;5039281;28;20025;-78
2021/11/29 01:08:36;;;;;;;35.33;7.60;;;-0.20;99.90;;;;;;5039428;28;20043;-79
2021/11/29 01:11:04;;;;;;;25.40;5.70;;;-0.20;99.90;;;;;;5048620;28;20033;-79
2021/11/29 01:13:30;;;;;;;56.03;7.70;;;-0.30;99.90;;;;;;5032191;28;20022;-79
2021/11/29 01:15:56;;;;;;;26.38;6.90;;;-0.40;99.90;;;;;;5039538;28;20082;-78
2021/11/29 01:18:21;;;;;;;18.08;5.72;;;-0.40;99.90;;;;;;5039101;28;20036;-79
2021/11/29 01:20:48;;;;;;;41.05;6.22;;;-0.50;99.90;;;;;;5029903;28;20291;-79
2021/11/29 01:23:16;;;;;;;64.38;7.28;;;-0.50;99.90;;;;;;5021656;28;20029;-78
2021/11/29 01:25:41;;;;;;;14.20;5.15;;;-0.60;99.90;;;;;;5020487;28;20032;-79
2021/11/29 01:28:07;;;;;;;37.15;6.30;;;-0.60;99.90;;;;;;5028845;28;20106;-80
2021/11/29 01:30:34;;;;;;;7.88;5.32;;;-0.60;99.90;;;;;;5037511;28;20037;-80
2021/11/29 01:33:00;;;;;;;104.53;9.15;;;-0.70;99.90;;;;;;5030741;28;20075;-80
2021/11/29 01:35:26;;;;;;;16.17;5.45;;;-0.80;99.90;;;;;;5029859;28;20033;-80
2021/11/29 01:37:51;;;;;;;13.70;5.63;;;-0.90;99.90;;;;;;5037942;28;20032;-80
2021/11/29 01:40:18;;;;;;;16.05;5.50;;;-0.80;99.90;;;;;;5038606;28;20036;-79
2021/11/29 01:42:56;;;;;;;45.63;7.32;;;-0.80;99.90;;;;;;5020512;28;20042;-80
2021/11/29 01:45:22;;;;;;;32.92;7.35;;;-0.80;99.90;;;;;;5026933;28;20040;-80
2021/11/29 01:47:48;;;;;;;19.77;6.60;;;-0.90;99.90;;;;;;5028049;28;20048;-79
2021/11/29 01:50:14;;;;;;;10.93;6.25;;;-0.90;99.90;;;;;;5038261;28;20037;-80
2021/11/29 01:52:39;;;;;;;25.90;6.28;;;-0.90;99.90;;;;;;5028224;28;20159;-80
2021/11/29 01:55:05;;;;;;;30.33;6.72;;;-0.80;99.90;;;;;;5027228;28;20120;-80
2021/11/29 01:57:31;;;;;;;9.60;5.82;;;-0.80;99.90;;;;;;5033730;28;20045;-79
2021/11/29 01:59:56;;;;;;;20.73;6.22;;;-0.80;99.90;;;;;;5035081;28;20111;-80
2021/11/29 02:02:25;;;;;;;9.57;6.35;;;-0.80;99.90;;;;;;5027173;28;20094;-79
2021/11/29 02:14:21;;;;;;;8.13;5.10;;;-0.70;99.90;;;;;;5178684;23;20088;-56
2021/11/29 02:16:48;;;;;;;18.27;5.93;;;-0.70;99.90;;;;;;5034298;28;20065;-53
2021/11/29 02:19:14;;;;;;;8.82;5.97;;;-0.70;99.90;;;;;;5034454;28;20029;-51
2021/11/29 02:21:39;;;;;;;12.30;6.28;;;-0.70;99.90;;;;;;5032594;28;20461;-56
2021/11/29 02:24:07;;;;;;;10.25;5.63;;;-0.70;99.90;;;;;;5034189;28;20041;-52
2021/11/29 02:26:38;;;;;;;10.07;5.82;;;-0.70;99.90;;;;;;5034383;28;20044;-51
2021/11/29 02:29:15;;;;;;;6.72;4.47;;;-0.70;99.90;;;;;;5033143;28;20033;-56
2021/11/29 02:31:45;;;;;;;9.18;5.45;;;-0.70;99.90;;;;;;5034579;28;20029;-54
2021/11/29 02:34:15;;;;;;;18.38;5.68;;;-0.70;99.90;;;;;;5033691;28;20025;-54
2021/11/29 02:36:41;;;;;;;8.73;5.00;;;-0.70;99.90;;;;;;5034055;28;20028;-54
2021/11/29 02:39:09;;;;;;;8.13;5.60;;;-0.60;99.90;;;;;;5033942;28;20039;-53
2021/11/29 02:41:34;;;;;;;7.25;5.40;;;-0.60;99.90;;;;;;5050202;28;20042;-55
2021/11/29 02:44:00;;;;;;;9.73;6.20;;;-0.60;99.90;;;;;;5034598;28;20041;-59
2021/11/29 02:46:27;;;;;;;7.45;5.03;;;-0.60;99.90;;;;;;5033847;28;20045;-57
2021/11/29 02:48:53;;;;;;;8.50;4.70;;;-0.50;99.90;;;;;;5033454;28;20026;-54
2021/11/29 02:51:24;;;;;;;7.10;5.32;;;-0.50;99.90;;;;;;5049980;28;20314;-56
2021/11/29 02:53:54;;;;;;;9.05;5.57;;;-0.60;99.90;;;;;;5033728;28;20088;-51
2021/11/29 02:56:20;;;;;;;9.38;6.25;;;-0.60;99.90;;;;;;5049254;28;20493;-53
2021/11/29 02:58:45;;;;;;;9.65;5.80;;;-0.60;99.90;;;;;;5033203;28;20098;-53
2021/11/29 03:01:11;;;;;;;18.33;7.60;;;-0.50;99.90;;;;;;5034493;28;20045;-55
2021/11/29 03:03:52;;;;;;;9.65;6.20;;;-0.50;99.90;;;;;;5033710;28;20087;-57
2021/11/29 03:06:18;;;;;;;11.05;7.03;;;-0.50;99.90;;;;;;5032904;28;20149;-52
2021/11/29 03:08:45;;;;;;;10.27;6.82;;;-0.50;99.90;;;;;;5033501;28;20034;-54
2021/11/29 03:11:11;;;;;;;10.48;6.88;;;-0.50;99.90;;;;;;5034182;28;20028;-56
2021/11/29 03:13:37;;;;;;;9.27;6.47;;;-0.50;99.90;;;;;;5033772;28;20564;-56
2021/11/29 03:16:04;;;;;;;7.88;5.70;;;-0.40;99.90;;;;;;5033787;28;20036;-57
2021/11/29 03:18:34;;;;;;;8.80;5.50;;;-0.40;99.90;;;;;;5033574;28;20060;-56
2021/11/29 03:21:00;;;;;;;8.50;5.60;;;-0.40;99.90;;;;;;5034496;28;20063;-54
2021/11/29 03:23:26;;;;;;;7.95;5.18;;;-0.40;99.90;;;;;;5033081;28;20064;-55
2021/11/29 03:25:51;;;;;;;9.27;6.22;;;-0.40;99.90;;;;;;5034198;28;20032;-55
2021/11/29 03:28:17;;;;;;;9.88;6.03;;;-0.50;99.90;;;;;;5032274;28;20037;-50
2021/11/29 03:30:43;;;;;;;8.63;5.38;;;-0.40;99.90;;;;;;5034657;28;20045;-52
2021/11/29 03:33:08;;;;;;;10.15;6.25;;;-0.40;99.90;;;;;;5032257;28;20032;-54
2021/11/29 03:35:36;;;;;;;10.25;5.80;;;-0.40;99.90;;;;;;5032818;28;20054;-53
2021/11/29 03:38:02;;;;;;;8.85;6.38;;;-0.50;99.90;;;;;;5032663;28;20074;-49
2021/11/29 03:40:28;;;;;;;7.90;5.50;;;-0.50;99.90;;;;;;5034077;28;20064;-53
2021/11/29 03:42:54;;;;;;;8.60;6.05;;;-0.50;99.90;;;;;;5033109;28;20025;-54
2021/11/29 03:45:20;;;;;;;9.02;5.50;;;-0.50;99.90;;;;;;5033242;28;20087;-56
2021/11/29 03:47:45;;;;;;;13.25;6.30;;;-0.40;99.90;;;;;;5032651;28;20095;-56
2021/11/29 03:50:11;;;;;;;9.93;6.35;;;-0.40;99.90;;;;;;5033683;28;21128;-53
2021/11/29 03:52:37;;;;;;;9.20;5.65;;;-0.40;99.90;;;;;;5048949;28;20025;-57
2021/11/29 03:55:03;;;;;;;10.27;6.22;;;-0.40;99.90;;;;;;5032811;28;20049;-59
2021/11/29 03:57:28;;;;;;;9.65;6.00;;;-0.40;99.90;;;;;;5033777;28;20443;-58
2021/11/29 03:59:54;;;;;;;11.52;6.43;;;-0.40;99.90;;;;;;5033738;28;20040;-50
2021/11/29 04:02:19;;;;;;;10.13;6.50;;;-0.40;99.90;;;;;;5048611;28;20110;-50
2021/11/29 04:04:45;;;;;;;9.60;6.18;;;-0.40;99.90;;;;;;5033243;28;20061;-54
2021/11/29 04:07:11;;;;;;;9.77;6.13;;;-0.40;99.90;;;;;;5032951;28;20051;-55
2021/11/29 04:09:36;;;;;;;10.27;6.68;;;-0.40;99.90;;;;;;5031827;28;20013;-50
2021/11/29 04:12:02;;;;;;;8.85;5.57;;;-0.40;99.90;;;;;;5032803;28;20049;-52
2021/11/29 04:14:29;;;;;;;8.85;5.78;;;-0.40;99.90;;;;;;5032789;28;20485;-53
2021/11/29 04:16:54;;;;;;;9.27;5.80;;;-0.40;99.90;;;;;;5032712;28;20035;-49
2021/11/29 04:19:20;;;;;;;7.97;5.47;;;-0.40;99.90;;;;;;5035853;28;20117;-54
2021/11/29 04:21:47;;;;;;;8.48;5.70;;;-0.40;99.90;;;;;;5037627;28;20068;-52
2021/11/29 04:24:13;;;;;;;9.95;5.95;;;-0.40;99.90;;;;;;5037024;28;20084;-54
2021/11/29 04:26:40;;;;;;;8.55;5.68;;;-0.40;99.90;;;;;;5037711;28;20085;-52
2021/11/29 04:29:16;;;;;;;8.70;5.85;;;-0.40;99.90;;;;;;5035024;28;20036;-50
2021/11/29 04:31:42;;;;;;;8.13;5.38;;;-0.40;99.90;;;;;;5036446;28;20382;-55
2021/11/29 04:34:08;;;;;;;9.45;6.32;;;-0.40;99.90;;;;;;5036241;28;20044;-57
2021/11/29 04:36:34;;;;;;;11.00;6.60;;;-0.40;99.90;;;;;;5035328;28;20038;-56
2021/11/29 04:39:00;;;;;;;8.18;5.32;;;-0.40;99.90;;;;;;5036055;28;20564;-55
2021/11/29 04:41:26;;;;;;;10.30;6.45;;;-0.40;99.90;;;;;;5035799;28;20089;-54
2021/11/29 04:43:52;;;;;;;10.70;5.90;;;-0.40;99.90;;;;;;5036299;28;20110;-59
2021/11/29 04:46:18;;;;;;;11.68;6.85;;;-0.40;99.90;;;;;;5037438;28;20108;-58
2021/11/29 04:48:43;;;;;;;9.63;6.78;;;-0.40;99.90;;;;;;5035421;28;20025;-51
2021/11/29 04:51:09;;;;;;;9.18;5.30;;;-0.40;99.90;;;;;;5036999;28;20029;-56
2021/11/29 04:53:35;;;;;;;8.70;5.78;;;-0.40;99.90;;;;;;5035765;28;20493;-52
2021/11/29 04:56:02;;;;;;;9.77;6.63;;;-0.40;99.90;;;;;;5037637;28;20083;-55
2021/11/29 04:58:28;;;;;;;8.43;5.68;;;-0.40;99.90;;;;;;5035659;28;20044;-54
2021/11/29 05:00:53;;;;;;;10.82;6.57;;;-0.40;99.90;;;;;;5036122;28;20033;-56
2021/11/29 05:03:20;;;;;;;8.93;6.10;;;-0.40;99.90;;;;;;5035925;28;20472;-51
2021/11/29 05:05:46;;;;;;;10.05;6.93;;;-0.40;99.90;;;;;;5035951;28;20033;-54
2021/11/29 05:08:12;;;;;;;8.07;5.85;;;-0.40;99.90;;;;;;5036313;28;20026;-51
2021/11/29 05:10:37;;;;;;;8.05;5.88;;;-0.40;99.90;;;;;;5036078;28;20029;-53
2021/11/29 05:13:03;;;;;;;12.43;6.03;;;-0.40;99.90;;;;;;5036665;28;20045;-54
2021/11/29 05:15:28;;;;;;;9.52;6.35;;;-0.40;99.90;;;;;;5037171;28;20025;-55
2021/11/29 05:17:54;;;;;;;9.18;6.07;;;-0.40;99.90;;;;;;5036173;28;20029;-54
2021/11/29 05:20:20;;;;;;;11.55;7.00;;;-0.40;99.90;;;;;;5036440;28;20103;-54
2021/11/29 05:22:45;;;;;;;10.07;6.75;;;-0.40;99.90;;;;;;5036422;28;20171;-54
2021/11/29 05:25:11;;;;;;;10.75;7.03;;;-0.40;99.90;;;;;;5036249;28;20045;-58
2021/11/29 05:27:37;;;;;;;10.70;6.50;;;-0.40;99.90;;;;;;5036055;28;20026;-56
2021/11/29 05:30:05;;;;;;;11.10;6.90;;;-0.40;99.90;;;;;;5034993;28;20234;-53
2021/11/29 05:32:31;;;;;;;10.60;6.60;;;-0.40;99.90;;;;;;5035527;28;20686;-51
2021/11/29 05:34:57;;;;;;;11.02;6.85;;;-0.40;99.90;;;;;;5035970;28;20498;-52
2021/11/29 05:37:22;;;;;;;12.65;7.07;;;-0.30;99.90;;;;;;5035026;28;20025;-55
2021/11/29 05:39:50;;;;;;;10.38;6.20;;;-0.30;99.90;;;;;;5035356;28;20420;-54
2021/11/29 05:42:15;;;;;;;10.40;6.53;;;-0.30;99.90;;;;;;5036656;28;20033;-58
2021/11/29 05:44:41;;;;;;;16.55;6.70;;;-0.30;99.90;;;;;;5035207;28;20428;-50
2021/11/29 05:47:06;;;;;;;17.77;6.88;;;-0.30;99.90;;;;;;5035399;28;20084;-49
2021/11/29 05:49:32;;;;;;;12.80;6.78;;;-0.30;99.90;;;;;;5035827;28;20036;-54
2021/11/29 05:51:58;;;;;;;9.63;6.63;;;-0.20;99.90;;;;;;5034410;28;20411;-58
2021/11/29 05:54:24;;;;;;;10.40;6.63;;;-0.30;99.90;;;;;;5035427;28;20426;-54
2021/11/29 05:56:49;;;;;;;20.50;7.63;;;-0.30;99.90;;;;;;5034576;28;20045;-53
2021/11/29 05:59:15;;;;;;;12.07;7.30;;;-0.30;99.90;;;;;;5034493;28;20029;-53
2021/11/29 06:01:40;;;;;;;15.23;7.78;;;-0.30;99.90;;;;;;5035754;28;20033;-56
2021/11/29 06:04:06;;;;;;;14.40;8.43;;;-0.20;99.90;;;;;;5034588;28;20033;-57
2021/11/29 06:06:31;;;;;;;13.30;7.78;;;-0.20;99.90;;;;;;5033752;28;20126;-51
2021/11/29 06:08:57;;;;;;;15.40;9.40;;;-0.20;99.90;;;;;;5033939;28;20044;-58
2021/11/29 06:11:23;;;;;;;14.63;8.60;;;-0.20;99.90;;;;;;5034851;28;20029;-54
2021/11/29 06:13:52;;;;;;;12.65;7.82;;;-0.20;99.90;;;;;;5035460;28;20041;-55
2021/11/29 06:16:17;;;;;;;16.85;8.45;;;-0.20;99.90;;;;;;5035442;28;20497;-50
2021/11/29 06:18:43;;;;;;;13.70;8.07;;;-0.20;99.90;;;;;;5050024;28;20116;-51
2021/11/29 06:21:08;;;;;;;14.82;7.93;;;-0.20;99.90;;;;;;5033936;28;20117;-55
2021/11/29 06:23:35;;;;;;;13.02;7.75;;;-0.20;99.90;;;;;;5034535;28;20585;-53
2021/11/29 06:26:01;;;;;;;13.98;8.30;;;-0.20;99.90;;;;;;5034203;28;20413;-57
2021/11/29 06:28:27;;;;;;;11.05;7.15;;;-0.20;99.90;;;;;;5034821;28;20030;-50
2021/11/29 06:30:53;;;;;;;13.65;7.97;;;-0.20;99.90;;;;;;5035406;28;20465;-55
2021/11/29 06:33:19;;;;;;;13.82;8.68;;;-0.10;99.90;;;;;;5034233;28;20035;-58
2021/11/29 06:35:44;;;;;;;12.05;7.50;;;-0.10;99.90;;;;;;5050331;28;20506;-50
2021/11/29 06:38:11;;;;;;;12.70;7.68;;;-0.10;99.90;;;;;;5033225;28;20056;-51
2021/11/29 06:40:37;;;;;;;15.75;8.55;;;-0.10;99.90;;;;;;5033510;28;20045;-56
2021/11/29 06:43:03;;;;;;;16.45;9.00;;;-0.10;99.90;;;;;;5034502;28;20092;-49
2021/11/29 06:45:29;;;;;;;15.32;8.75;;;-0.10;99.90;;;;;;5034112;28;20100;-53
2021/11/29 06:47:56;;;;;;;12.70;7.75;;;-0.10;99.90;;;;;;5034443;28;20091;-52
2021/11/29 06:50:22;;;;;;;14.20;8.52;;;-0.10;99.90;;;;;;5034143;28;20687;-52
2021/11/29 06:52:49;;;;;;;13.90;7.95;;;-0.10;99.90;;;;;;5029789;28;20039;-51
2021/11/29 06:55:16;;;;;;;16.00;8.60;;;-0.10;99.90;;;;;;5032467;28;20032;-53
2021/11/29 06:57:43;;;;;;;16.13;10.15;;;-0.10;99.90;;;;;;5031883;28;20029;-56
2021/11/29 07:00:11;;;;;;;16.40;9.07;;;-0.10;99.90;;;;;;5031501;28;20038;-55
2021/11/29 07:02:39;;;;;;;13.68;8.52;;;-0.10;99.90;;;;;;5032202;28;20096;-52
2021/11/29 07:05:06;;;;;;;15.13;8.85;;;0.00;99.90;;;;;;5033553;28;20072;-49
2021/11/29 07:07:31;;;;;;;15.68;9.75;;;-0.10;99.90;;;;;;5031773;28;20033;-53
2021/11/29 07:09:57;;;;;;;17.92;9.85;;;0.00;99.90;;;;;;5033473;28;20031;-51
2021/11/29 07:12:22;;;;;;;17.98;10.07;;;0.00;99.90;;;;;;5032205;28;20030;-53
2021/11/29 07:14:48;;;;;;;17.85;10.05;;;0.00;99.90;;;;;;5032592;28;20030;-52
2021/11/29 07:17:15;;;;;;;16.63;10.40;;;0.00;99.90;;;;;;5032544;28;20040;-52
2021/11/29 07:19:40;;;;;;;17.20;10.20;;;0.00;99.90;;;;;;5032792;28;20033;-55
2021/11/29 07:22:06;;;;;;;17.08;10.15;;;0.00;99.90;;;;;;5031456;28;20067;-49
2021/11/29 07:24:34;;;;;;;14.93;10.20;;;0.00;99.90;;;;;;5046632;28;20112;-52
2021/11/29 07:26:59;;;;;;;18.85;10.23;;;0.10;99.90;;;;;;5034363;28;20120;-53
2021/11/29 07:29:25;;;;;;;17.58;11.00;;;0.10;99.90;;;;;;5033944;28;20635;-57
2021/11/29 07:31:51;;;;;;;15.32;8.88;;;0.10;99.90;;;;;;5032885;28;20729;-57
2021/11/29 07:34:17;;;;;;;21.33;11.30;;;0.10;99.90;;;;;;5047538;28;20124;-51
2021/11/29 07:36:43;;;;;;;16.80;10.70;;;0.10;99.90;;;;;;5031470;28;20040;-51
2021/11/29 07:39:10;;;;;;;20.40;12.30;;;0.10;99.90;;;;;;5033483;28;20041;-54
2021/11/29 07:41:36;;;;;;;18.58;11.27;;;0.20;99.90;;;;;;5033063;28;20097;-52
2021/11/29 07:44:02;;;;;;;18.23;10.63;;;0.10;99.90;;;;;;5032671;28;20037;-53
2021/11/29 07:46:28;;;;;;;22.08;10.98;;;0.20;99.90;;;;;;5032935;28;20396;-51
2021/11/29 07:48:54;;;;;;;25.35;12.52;;;0.20;99.90;;;;;;5032711;28;20025;-54
2021/11/29 07:51:19;;;;;;;17.98;10.95;;;0.20;99.90;;;;;;5033083;28;20079;-55
2021/11/29 07:53:45;;;;;;;24.75;12.23;;;0.20;99.90;;;;;;5038413;28;20034;-51
2021/11/29 07:56:10;;;;;;;19.95;11.45;;;0.20;99.90;;;;;;5039781;28;20029;-51
2021/11/29 07:58:36;;;;;;;20.75;12.60;;;0.20;99.90;;;;;;5039176;28;20060;-53
2021/11/29 08:01:02;;;;;;;26.23;12.82;;;0.30;99.90;;;;;;5021987;28;20026;-56
2021/11/29 08:03:27;;;;;;;20.38;11.50;;;0.30;99.90;;;;;;5039871;28;20026;-53
2021/11/29 08:05:53;;;;;;;21.20;12.13;;;0.30;99.90;;;;;;5039358;28;20053;-50
2021/11/29 08:08:19;;;;;;;26.48;12.70;;;0.30;99.90;;;;;;5039600;28;20116;-50
2021/11/29 08:10:44;;;;;;;22.58;12.07;;;0.30;99.90;;;;;;5038158;28;20076;-56
2021/11/29 08:13:13;;;;;;;24.63;12.65;;;0.30;99.90;;;;;;5039749;28;20040;-57
2021/11/29 08:15:39;;;;;;;17.05;11.05;;;0.40;99.90;;;;;;5036193;28;20034;-57
2021/11/29 08:18:05;;;;;;;19.90;13.38;;;0.40;99.90;;;;;;5039191;28;20025;-54
2021/11/29 08:20:31;;;;;;;25.55;12.82;;;0.40;99.90;;;;;;5039340;28;20443;-50
2021/11/29 08:22:57;;;;;;;26.08;13.88;;;0.40;99.90;;;;;;5040022;28;20044;-51
2021/11/29 08:25:23;;;;;;;22.98;13.63;;;0.40;99.90;;;;;;5039152;28;20033;-57
2021/11/29 08:27:49;;;;;;;20.30;11.77;;;0.40;99.90;;;;;;5037729;28;20052;-57
2021/11/29 08:30:16;;;;;;;23.90;12.93;;;0.40;99.90;;;;;;5039398;28;20041;-51
2021/11/29 08:32:42;;;;;;;21.52;12.73;;;0.40;99.90;;;;;;5040724;28;20072;-53
2021/11/29 08:35:10;;;;;;;21.05;12.10;;;0.40;99.90;;;;;;5037946;28;20033;-54
2021/11/29 08:37:38;;;;;;;22.02;12.43;;;0.50;99.90;;;;;;5038356;28;20052;-52
2021/11/29 08:40:06;;;;;;;26.40;14.07;;;0.50;99.90;;;;;;5040240;28;20116;-53
2021/11/29 08:42:31;;;;;;;25.95;14.35;;;0.50;99.90;;;;;;5055593;28;20035;-55
2021/11/29 08:44:57;;;;;;;23.13;13.30;;;0.60;99.90;;;;;;5040276;28;20034;-54
2021/11/29 08:47:24;;;;;;;21.48;12.82;;;0.60;99.90;;;;;;5040371;28;20025;-53
2021/11/29 08:49:49;;;;;;;23.05;13.75;;;0.60;99.90;;;;;;5038498;28;20386;-57
2021/11/29 08:52:15;;;;;;;22.85;13.38;;;0.70;99.90;;;;;;5038915;28;20052;-54
2021/11/29 08:54:41;;;;;;;25.10;13.70;;;0.70;99.90;;;;;;5039078;28;20112;-57
2021/11/29 08:57:10;;;;;;;21.38;13.02;;;0.70;99.90;;;;;;5037201;28;20029;-57
2021/11/29 08:59:35;;;;;;;22.40;12.95;;;0.70;99.90;;;;;;5038603;28;21311;-57
2021/11/29 09:02:01;;;;;;;23.73;13.63;;;0.80;99.90;;;;;;5038665;28;20040;-53
2021/11/29 09:04:27;;;;;;;23.98;13.85;;;0.80;99.90;;;;;;5036015;28;20041;-55
2021/11/29 09:06:53;;;;;;;21.73;13.35;;;0.80;99.90;;;;;;5035473;28;20037;-52
2021/11/29 09:09:18;;;;;;;19.05;12.07;;;0.90;99.90;;;;;;5034857;28;20481;-52
2021/11/29 09:11:44;;;;;;;24.48;12.82;;;0.90;99.90;;;;;;5035730;28;20037;-54
2021/11/29 09:14:10;;;;;;;25.02;12.77;;;0.90;99.90;;;;;;5032029;28;20033;-52
2021/11/29 09:16:36;;;;;;;20.38;12.73;;;1.00;99.90;;;;;;5035100;28;20048;-49
2021/11/29 09:19:02;;;;;;;24.65;13.23;;;1.00;99.90;;;;;;5034230;28;20014;-49
2021/11/29 09:21:28;;;;;;;23.00;12.82;;;1.10;99.90;;;;;;5035107;28;20033;-51
2021/11/29 09:23:54;;;;;;;26.75;12.93;;;1.20;99.90;;;;;;5034749;28;20033;-58
2021/11/29 09:26:19;;;;;;;23.65;12.75;;;1.30;99.90;;;;;;5034973;28;20029;-51
2021/11/29 09:28:45;;;;;;;21.33;12.85;;;1.40;99.90;;;;;;5034310;28;20032;-58
2021/11/29 09:31:12;;;;;;;21.55;11.77;;;1.50;99.90;;;;;;5035094;28;20035;-55
2021/11/29 09:33:39;;;;;;;18.88;11.63;;;1.50;99.90;;;;;;5032640;28;20112;-52
2021/11/29 09:36:05;;;;;;;22.23;11.63;;;1.60;99.90;;;;;;5035678;28;21481;-56
2021/11/29 09:38:32;;;;;;;17.42;12.20;;;1.70;99.90;;;;;;5033016;28;20120;-51
2021/11/29 09:40:58;;;;;;;23.92;12.48;;;1.80;99.90;;;;;;5035164;28;20032;-52
2021/11/29 09:43:24;;;;;;;22.63;12.70;;;1.90;99.90;;;;;;5034302;28;20036;-54
2021/11/29 09:45:51;;;;;;;23.38;11.60;;;2.00;99.90;;;;;;5035155;28;20018;-49
2021/11/29 09:48:19;;;;;;;21.95;11.07;;;2.20;99.90;;;;;;5034260;28;20029;-59
2021/11/29 09:50:47;;;;;;;19.08;10.85;;;2.20;99.90;;;;;;5034315;28;20025;-53
2021/11/29 09:53:18;;;;;;;18.98;11.13;;;2.20;99.90;;;;;;5034723;28;20029;-50
2021/11/29 09:55:45;;;;;;;17.65;9.82;;;2.30;99.90;;;;;;5034335;28;20504;-48
2021/11/29 09:58:11;;;;;;;16.65;10.55;;;2.30;99.90;;;;;;5033605;28;20037;-52
2021/11/29 10:00:44;;;;;;;17.15;10.45;;;2.40;99.90;;;;;;5036082;28;20029;-55
2021/11/29 10:03:10;;;;;;;14.98;9.45;;;2.40;99.90;;;;;;5035582;28;20024;-58
2021/11/29 10:05:37;;;;;;;13.50;9.60;;;2.50;99.90;;;;;;5034801;28;20552;-54
2021/11/29 10:08:23;;;;;;;15.27;8.82;;;2.50;99.90;;;;;;5031413;28;20425;-55
2021/11/29 10:10:52;;;;;;;14.23;7.97;;;2.40;99.90;;;;;;5036009;28;20115;-51
2021/11/29 10:13:19;;;;;;;12.32;8.23;;;2.40;99.90;;;;;;5035349;28;20090;-50
2021/11/29 10:15:45;;;;;;;12.43;8.13;;;2.50;99.90;;;;;;5034479;28;20017;-48
2021/11/29 10:18:16;;;;;;;11.15;7.50;;;2.50;99.90;;;;;;5033687;28;20079;-51
2021/11/29 10:20:51;;;;;;;12.40;6.75;;;2.40;99.90;;;;;;5035339;28;20334;-53
2021/11/29 10:23:24;;;;;;;9.57;7.30;;;2.40;99.90;;;;;;5035626;28;20492;-54
2021/11/29 10:25:50;;;;;;;8.95;6.20;;;2.40;99.90;;;;;;5034073;28;20037;-58
2021/11/29 10:28:38;;;;;;;8.88;6.25;;;2.50;99.90;;;;;;5033960;28;20112;-50
2021/11/29 10:31:24;;;;;;;9.35;5.93;;;2.60;99.90;;;;;;5033479;28;20021;-52
2021/11/29 10:34:05;;;;;;;7.93;5.13;;;2.50;99.90;;;;;;5015644;28;20128;-53
2021/11/29 10:36:38;;;;;;;9.75;5.70;;;2.60;99.90;;;;;;5031623;28;20033;-50
2021/11/29 10:39:16;;;;;;;6.45;5.43;;;2.60;99.90;;;;;;5031719;28;20473;-49
2021/11/29 10:41:44;;;;;;;6.75;3.85;;;2.70;99.90;;;;;;5029769;28;20487;-56
2021/11/29 10:44:14;;;;;;;5.15;3.42;;;2.70;99.90;;;;;;5031515;28;20148;-50
2021/11/29 10:46:42;;;;;;;5.25;2.38;;;2.70;99.90;;;;;;5029915;28;20037;-49
2021/11/29 10:49:12;;;;;;;3.83;3.03;;;2.60;99.90;;;;;;5030278;28;20033;-50
2021/11/29 10:51:41;;;;;;;3.05;2.78;;;2.60;99.90;;;;;;5031138;28;20429;-56
2021/11/29 10:54:12;;;;;;;4.22;3.00;;;2.60;99.90;;;;;;5031517;28;20021;-51
2021/11/29 10:56:40;;;;;;;3.03;2.63;;;2.60;99.90;;;;;;5029439;28;20056;-50
2021/11/29 10:59:11;;;;;;;4.35;2.70;;;2.60;99.90;;;;;;5029946;28;20060;-54
2021/11/29 11:01:51;;;;;;;3.45;3.13;;;2.60;99.90;;;;;;5029184;28;21390;-51
2021/11/29 11:04:24;;;;;;;5.50;3.03;;;2.60;99.90;;;;;;5032644;28;20620;-49
2021/11/29 11:06:59;;;;;;;3.85;3.28;;;2.70;99.90;;;;;;5032806;28;20449;-58
2021/11/29 11:09:30;;;;;;;4.32;3.30;;;2.70;99.90;;;;;;5031248;28;20037;-49
2021/11/29 11:11:58;;;;;;;3.70;3.22;;;2.70;99.90;;;;;;5032119;28;20026;-51
2021/11/29 11:14:38;;;;;;;3.55;3.17;;;2.70;99.90;;;;;;5032519;28;20036;-48
2021/11/29 11:17:09;;;;;;;3.90;2.97;;;2.80;99.90;;;;;;5032672;28;20751;-50
2021/11/29 11:19:45;;;;;;;4.15;3.75;;;2.90;99.90;;;;;;5034339;28;20083;-53
2021/11/29 11:22:20;;;;;;;4.82;3.20;;;2.90;99.90;;;;;;5033428;28;20078;-51
2021/11/29 11:24:52;;;;;;;4.68;3.60;;;2.90;99.90;;;;;;5032937;28;20039;-59
2021/11/29 11:27:19;;;;;;;4.93;3.88;;;2.90;99.90;;;;;;5033245;28;20044;-57
2021/11/29 11:29:59;;;;;;;6.05;4.32;;;2.90;99.90;;;;;;5034111;28;20018;-53
2021/11/29 11:32:32;;;;;;;7.43;4.63;;;2.90;99.90;;;;;;5032091;28;20120;-50
2021/11/29 11:35:05;;;;;;;5.85;4.35;;;2.90;99.90;;;;;;5033761;28;20390;-52
2021/11/29 11:37:41;;;;;;;9.27;4.72;;;2.90;99.90;;;;;;5033142;28;20025;-55
2021/11/29 11:40:11;;;;;;;6.53;4.25;;;3.00;99.90;;;;;;5034091;28;20025;-48
2021/11/29 11:42:37;;;;;;;7.20;5.03;;;3.00;99.90;;;;;;5031254;28;20036;-56
2021/11/29 11:45:07;;;;;;;7.22;5.05;;;3.00;99.90;;;;;;5032925;28;20025;-54
2021/11/29 11:47:33;;;;;;;7.50;5.63;;;3.00;99.90;;;;;;5029461;28;20504;-51
2021/11/29 11:50:00;;;;;;;9.30;6.03;;;3.10;99.90;;;;;;5030386;28;20026;-54
2021/11/29 11:52:25;;;;;;;7.55;5.88;;;3.10;99.90;;;;;;5032091;28;20021;-51
2021/11/29 11:54:56;;;;;;;9.02;6.47;;;3.20;99.90;;;;;;5047772;28;20036;-53
2021/11/29 11:57:24;;;;;;;8.10;5.38;;;3.20;99.90;;;;;;5032409;28;20098;-50
2021/11/29 12:00:24;;;;;;;9.27;6.50;;;3.20;99.90;;;;;;5032657;28;20029;-53
2021/11/29 12:03:06;;;;;;;7.53;5.45;;;3.20;99.90;;;;;;5032534;28;20092;-51
2021/11/29 12:05:49;;;;;;;7.53;6.07;;;3.30;99.90;;;;;;5032859;28;20065;-50
2021/11/29 12:08:35;;;;;;;6.90;5.65;;;3.20;99.90;;;;;;5031194;28;20107;-50
2021/11/29 12:11:05;;;;;;;6.97;6.18;;;3.20;99.90;;;;;;5032958;28;20029;-53
2021/11/29 12:13:42;;;;;;;7.07;6.22;;;3.20;99.90;;;;;;5032784;28;20033;-49
2021/11/29 12:16:10;;;;;;;7.80;5.45;;;3.20;99.90;;;;;;5032566;28;20029;-56
2021/11/29 12:18:45;;;;;;;7.63;5.75;;;3.20;99.90;;;;;;5032387;28;20052;-53
2021/11/29 12:21:19;;;;;;;8.55;6.07;;;3.30;99.90;;;;;;5032803;28;20409;-53
2021/11/29 12:23:58;;;;;;;9.82;6.30;;;3.30;99.90;;;;;;5033002;28;20049;-49
2021/11/29 12:26:53;;;;;;;8.05;5.57;;;3.40;99.90;;;;;;5032674;28;20436;-57
2021/11/29 12:29:22;;;;;;;7.78;5.60;;;3.50;99.90;;;;;;5019286;28;20049;-54
2021/11/29 12:32:06;;;;;;;10.40;6.35;;;3.50;99.90;;;;;;5031590;28;20060;-53
2021/11/29 12:34:50;;;;;;;8.07;5.60;;;3.60;99.90;;;;;;5032493;28;20033;-55
2021/11/29 12:37:25;;;;;;;6.45;5.28;;;3.70;99.90;;;;;;5033380;28;20025;-54
2021/11/29 12:40:02;;;;;;;6.78;4.57;;;3.70;99.90;;;;;;5034150;28;20394;-53
2021/11/29 12:42:28;;;;;;;6.88;4.60;;;3.70;99.90;;;;;;5035866;28;20033;-55
2021/11/29 12:45:16;;;;;;;5.63;4.20;;;3.70;99.90;;;;;;5035544;28;20025;-50
2021/11/29 12:47:48;;;;;;;6.47;4.65;;;3.70;99.90;;;;;;5035457;28;20082;-48
2021/11/29 12:50:36;;;;;;;7.38;4.75;;;3.70;99.90;;;;;;5033999;28;20024;-51
2021/11/29 12:53:17;;;;;;;5.80;4.28;;;3.80;99.90;;;;;;5035779;28;20983;-53
2021/11/29 12:55:49;;;;;;;7.03;4.78;;;3.90;99.90;;;;;;5035538;28;20029;-57